Time,TemperatureF,DewpointF,PressureIn,WindDirection,WindDirectionDegrees,WindSpeedMPH,WindSpeedGustMPH,Humidity,HourlyPrecipIn,Conditions,Clouds,dailyrainin,SoftwareType,DateUTC
2013-07-31 00:14:00,53.8,54.0,30.10,South,176,11.0,16.0,99,0.00,,,0.00,weatherlink.com 1.10,2013-07-31 07:14:00,
2013-07-31 00:29:00,54.0,54.0,30.10,South,176,6.0,13.0,99,0.00,,,0.00,weatherlink.com 1.10,2013-07-31 07:29:00,
2013-07-31 00:44:00,54.2,54.0,30.10,South,176,9.0,10.0,99,0.00,,,0.00,weatherlink.com 1.10,2013-07-31 07:44:00,
2013-07-31 00:59:00,54.2,54.0,30.09,South,176,7.0,13.0,98,0.00,,,0.00,weatherlink.com 1.10,2013-07-31 07:59:00,
2013-07-31 01:14:00,54.3,54.0,30.09,South,176,6.0,11.0,98,0.00,,,0.00,weatherlink.com 1.10,2013-07-31 08:14:00,
2013-07-31 01:29:00,54.1,54.0,30.08,South,176,7.0,9.0,98,0.00,,,0.00,weatherlink.com 1.10,2013-07-31 08:29:00,
2013-07-31 01:44:00,54.2,54.0,30.08,South,176,12.0,12.0,98,0.00,,,0.00,weatherlink.com 1.10,2013-07-31 08:44:00,
2013-07-31 01:59:00,54.2,54.0,30.08,South,176,5.0,10.0,98,0.00,,,0.00,weatherlink.com 1.10,2013-07-31 08:59:00,
2013-07-31 02:14:00,53.9,53.0,30.07,South,176,7.0,11.0,98,0.00,,,0.00,weatherlink.com 1.10,2013-07-31 09:14:00,
2013-07-31 02:29:00,54.1,54.0,30.07,South,176,10.0,11.0,98,0.00,,,0.00,weatherlink.com 1.10,2013-07-31 09:29:00,
2013-07-31 02:44:00,54.0,54.0,30.07,South,176,9.0,12.0,98,0.00,,,0.00,weatherlink.com 1.10,2013-07-31 09:44:00,
2013-07-31 02:59:00,54.0,54.0,30.08,South,176,8.0,12.0,98,0.00,,,0.00,weatherlink.com 1.10,2013-07-31 09:59:00,
2013-07-31 03:14:00,53.9,53.0,30.07,South,176,5.0,12.0,98,0.00,,,0.00,weatherlink.com 1.10,2013-07-31 10:14:00,
2013-07-31 03:29:00,54.0,54.0,30.07,South,176,8.0,12.0,98,0.00,,,0.00,weatherlink.com 1.10,2013-07-31 10:29:00,
2013-07-31 03:44:00,54.0,54.0,30.07,South,176,10.0,11.0,98,0.00,,,0.00,weatherlink.com 1.10,2013-07-31 10:44:00,
2013-07-31 03:59:00,54.0,54.0,30.07,South,176,7.0,12.0,98,0.00,,,0.00,weatherlink.com 1.10,2013-07-31 10:59:00,
2013-07-31 04:14:00,53.7,53.0,30.07,South,176,11.0,12.0,98,0.00,,,0.00,weatherlink.com 1.10,2013-07-31 11:14:00,
2013-07-31 04:29:00,53.6,53.0,30.07,South,176,9.0,12.0,98,0.00,,,0.00,weatherlink.com 1.10,2013-07-31 11:29:00,
2013-07-31 04:44:00,53.6,53.0,30.07,South,176,11.0,13.0,98,0.00,,,0.00,weatherlink.com 1.10,2013-07-31 11:44:00,
2013-07-31 04:59:00,53.4,53.0,30.07,South,176,7.0,9.0,98,0.00,,,0.00,weatherlink.com 1.10,2013-07-31 11:59:00,
2013-07-31 05:14:00,53.5,53.0,30.07,South,176,7.0,9.0,98,0.00,,,0.00,weatherlink.com 1.10,2013-07-31 12:14:00,
2013-07-31 05:29:00,53.4,53.0,30.07,South,176,8.0,10.0,98,0.00,,,0.00,weatherlink.com 1.10,2013-07-31 12:29:00,
2013-07-31 05:44:00,53.2,53.0,30.07,South,176,9.0,12.0,99,0.00,,,0.00,weatherlink.com 1.10,2013-07-31 12:44:00,
2013-07-31 05:59:00,53.0,53.0,30.07,South,176,7.0,10.0,99,0.00,,,0.00,weatherlink.com 1.10,2013-07-31 12:59:00,
2013-07-31 06:14:00,53.1,53.0,30.08,South,176,6.0,11.0,99,0.00,,,0.00,weatherlink.com 1.10,2013-07-31 13:14:00,
2013-07-31 06:29:00,53.1,53.0,30.08,South,176,6.0,10.0,99,0.00,,,0.00,weatherlink.com 1.10,2013-07-31 13:29:00,
2013-07-31 06:44:00,53.1,53.0,30.08,South,176,5.0,10.0,99,0.00,,,0.00,weatherlink.com 1.10,2013-07-31 13:44:00,
2013-07-31 06:59:00,53.3,53.0,30.08,South,176,8.0,9.0,99,0.00,,,0.00,weatherlink.com 1.10,2013-07-31 13:59:00,
2013-07-31 07:14:00,53.6,53.0,30.09,South,176,4.0,7.0,99,0.00,,,0.00,weatherlink.com 1.10,2013-07-31 14:14:00,
2013-07-31 07:29:00,53.7,54.0,30.09,South,176,7.0,10.0,99,0.00,,,0.00,weatherlink.com 1.10,2013-07-31 14:29:00,
2013-07-31 07:44:00,53.4,53.0,30.09,South,176,5.0,6.0,99,0.00,,,0.00,weatherlink.com 1.10,2013-07-31 14:44:00,
2013-07-31 07:59:00,53.6,53.0,30.10,South,176,2.0,8.0,99,0.00,,,0.00,weatherlink.com 1.10,2013-07-31 14:59:00,
2013-07-31 08:14:00,53.7,54.0,30.10,South,176,4.0,7.0,99,0.00,,,0.00,weatherlink.com 1.10,2013-07-31 15:14:00,
2013-07-31 08:29:00,54.0,54.0,30.09,South,176,5.0,8.0,99,0.00,,,0.00,weatherlink.com 1.10,2013-07-31 15:29:00,
2013-07-31 08:44:00,54.1,54.0,30.09,South,176,3.0,8.0,98,0.00,,,0.00,weatherlink.com 1.10,2013-07-31 15:44:00,
2013-07-31 08:59:00,54.5,54.0,30.09,South,176,4.0,7.0,98,0.00,,,0.00,weatherlink.com 1.10,2013-07-31 15:59:00,
2013-07-31 09:14:00,54.8,54.0,30.09,South,176,3.0,7.0,98,0.00,,,0.00,weatherlink.com 1.10,2013-07-31 16:14:00,
2013-07-31 09:29:00,54.9,54.0,30.09,South,176,5.0,7.0,98,0.00,,,0.00,weatherlink.com 1.10,2013-07-31 16:29:00,
2013-07-31 09:44:00,55.3,55.0,30.10,South,176,4.0,8.0,97,0.00,,,0.00,weatherlink.com 1.10,2013-07-31 16:44:00,
2013-07-31 09:59:00,55.8,55.0,30.10,South,176,5.0,7.0,96,0.00,,,0.00,weatherlink.com 1.10,2013-07-31 16:59:00,
2013-07-31 10:14:00,56.1,55.0,30.10,South,176,5.0,7.0,95,0.00,,,0.00,weatherlink.com 1.10,2013-07-31 17:14:00,
2013-07-31 10:29:00,56.6,55.0,30.10,South,176,6.0,8.0,94,0.00,,,0.00,weatherlink.com 1.10,2013-07-31 17:29:00,
2013-07-31 10:44:00,56.6,55.0,30.11,South,176,5.0,11.0,94,0.00,,,0.00,weatherlink.com 1.10,2013-07-31 17:44:00,
2013-07-31 10:59:00,56.3,55.0,30.11,South,176,6.0,11.0,94,0.00,,,0.00,weatherlink.com 1.10,2013-07-31 17:59:00,
2013-07-31 11:14:00,56.6,55.0,30.11,South,176,7.0,8.0,93,0.00,,,0.00,weatherlink.com 1.10,2013-07-31 18:14:00,
2013-07-31 11:30:00,57.0,55.0,30.11,South,176,6.0,8.0,91,0.00,,,0.00,weatherlink.com 1.10,2013-07-31 18:30:00,
2013-07-31 11:45:00,57.7,55.0,30.11,South,176,9.0,11.0,91,0.00,,,0.00,weatherlink.com 1.10,2013-07-31 18:45:00,
2013-07-31 12:00:00,57.8,55.0,30.11,South,176,6.0,11.0,91,0.00,,,0.00,weatherlink.com 1.10,2013-07-31 19:00:00,
2013-07-31 12:15:00,58.2,56.0,30.10,South,176,8.0,10.0,91,0.00,,,0.00,weatherlink.com 1.10,2013-07-31 19:15:00,
2013-07-31 12:30:00,58.3,56.0,30.09,South,176,6.0,9.0,90,0.00,,,0.00,weatherlink.com 1.10,2013-07-31 19:30:00,
2013-07-31 12:45:00,58.4,55.0,30.09,South,176,6.0,11.0,89,0.00,,,0.00,weatherlink.com 1.10,2013-07-31 19:45:00,
2013-07-31 13:00:00,58.5,56.0,30.09,South,176,7.0,10.0,90,0.00,,,0.00,weatherlink.com 1.10,2013-07-31 20:00:00,
2013-07-31 13:15:00,58.8,56.0,30.09,South,176,7.0,11.0,89,0.00,,,0.00,weatherlink.com 1.10,2013-07-31 20:15:00,
2013-07-31 13:30:00,58.8,55.0,30.09,South,176,7.0,11.0,88,0.00,,,0.00,weatherlink.com 1.10,2013-07-31 20:30:00,
2013-07-31 13:45:00,59.3,56.0,30.09,South,176,6.0,10.0,89,0.00,,,0.00,weatherlink.com 1.10,2013-07-31 20:45:00,
2013-07-31 14:00:00,59.3,56.0,30.09,South,176,10.0,11.0,90,0.00,,,0.00,weatherlink.com 1.10,2013-07-31 21:00:00,
2013-07-31 14:15:00,59.4,57.0,30.09,South,176,8.0,12.0,90,0.00,,,0.00,weatherlink.com 1.10,2013-07-31 21:15:00,
2013-07-31 14:30:00,59.5,56.0,30.09,South,176,10.0,12.0,89,0.00,,,0.00,weatherlink.com 1.10,2013-07-31 21:30:00,
2013-07-31 14:45:00,59.3,56.0,30.09,WSW,238,13.0,17.0,90,0.00,,,0.00,weatherlink.com 1.10,2013-07-31 21:45:00,
2013-07-31 15:00:00,60.3,57.0,30.08,WSW,250,8.0,14.0,89,0.00,,,0.00,weatherlink.com 1.10,2013-07-31 22:00:00,
2013-07-31 15:15:00,60.4,57.0,30.08,WSW,249,9.0,14.0,89,0.00,,,0.00,weatherlink.com 1.10,2013-07-31 22:15:00,
2013-07-31 15:30:00,61.3,57.0,30.08,SW,231,4.0,12.0,86,0.00,,,0.00,weatherlink.com 1.10,2013-07-31 22:30:00,
2013-07-31 15:45:00,61.7,57.0,30.07,WNW,292,3.0,14.0,84,0.00,,,0.00,weatherlink.com 1.10,2013-07-31 22:45:00,
2013-07-31 16:00:00,61.3,57.0,30.07,SW,232,10.0,14.0,86,0.00,,,0.00,weatherlink.com 1.10,2013-07-31 23:00:00,
2013-07-31 16:15:00,61.3,58.0,30.07,WNW,284,4.0,16.0,88,0.00,,,0.00,weatherlink.com 1.10,2013-07-31 23:15:00,
2013-07-31 16:30:00,62.3,57.0,30.07,SW,230,4.0,14.0,82,0.00,,,0.00,weatherlink.com 1.10,2013-07-31 23:30:00,
2013-07-31 16:45:00,61.5,56.0,30.06,WSW,251,9.0,16.0,83,0.00,,,0.00,weatherlink.com 1.10,2013-07-31 23:45:00,
2013-07-31 17:00:00,61.3,57.0,30.06,SW,236,9.0,14.0,85,0.00,,,0.00,weatherlink.com 1.10,2013-08-01 00:00:00,
2013-07-31 17:15:00,61.3,56.0,30.05,West,266,6.0,16.0,83,0.00,,,0.00,weatherlink.com 1.10,2013-08-01 00:15:00,
2013-07-31 17:30:00,61.7,57.0,30.05,South,180,4.0,15.0,83,0.00,,,0.00,weatherlink.com 1.10,2013-08-01 00:30:00,
2013-07-31 17:45:00,61.6,57.0,30.04,South,181,10.0,14.0,84,0.00,,,0.00,weatherlink.com 1.10,2013-08-01 00:45:00,
2013-07-31 18:00:00,61.1,57.0,30.04,West,269,7.0,17.0,85,0.00,,,0.00,weatherlink.com 1.10,2013-08-01 01:00:00,
2013-07-31 18:15:00,60.9,56.0,30.04,South,179,6.0,15.0,85,0.00,,,0.00,weatherlink.com 1.10,2013-08-01 01:15:00,
2013-07-31 18:30:00,60.7,57.0,30.04,SW,224,8.0,12.0,86,0.00,,,0.00,weatherlink.com 1.10,2013-08-01 01:30:00,
2013-07-31 18:45:00,60.4,56.0,30.04,South,181,6.0,14.0,86,0.00,,,0.00,weatherlink.com 1.10,2013-08-01 01:45:00,
2013-07-31 19:00:00,59.9,56.0,30.03,SW,231,5.0,14.0,86,0.00,,,0.00,weatherlink.com 1.10,2013-08-01 02:00:00,
2013-07-31 19:15:00,59.7,56.0,30.03,WSW,239,12.0,12.0,86,0.00,,,0.00,weatherlink.com 1.10,2013-08-01 02:15:00,
2013-07-31 19:30:00,59.4,56.0,30.03,South,179,2.0,13.0,87,0.00,,,0.00,weatherlink.com 1.10,2013-08-01 02:30:00,
2013-07-31 19:45:00,59.1,55.0,30.03,West,265,4.0,13.0,87,0.00,,,0.00,weatherlink.com 1.10,2013-08-01 02:45:00,
2013-07-31 20:00:00,58.4,55.0,30.03,South,181,8.0,11.0,89,0.00,,,0.00,weatherlink.com 1.10,2013-08-01 03:00:00,
2013-07-31 20:15:00,57.8,55.0,30.03,WSW,246,6.0,11.0,90,0.00,,,0.00,weatherlink.com 1.10,2013-08-01 03:15:00,
2013-07-31 20:30:00,57.4,55.0,30.03,South,181,6.0,10.0,91,0.00,,,0.00,weatherlink.com 1.10,2013-08-01 03:30:00,
2013-07-31 20:45:00,57.2,55.0,30.03,WNW,291,5.0,15.0,91,0.00,,,0.00,weatherlink.com 1.10,2013-08-01 03:45:00,
2013-07-31 21:00:00,57.2,55.0,30.03,South,181,5.0,10.0,91,0.00,,,0.00,weatherlink.com 1.10,2013-08-01 04:00:00,
2013-07-31 21:15:00,57.2,55.0,30.03,WSW,244,8.0,15.0,91,0.00,,,0.00,weatherlink.com 1.10,2013-08-01 04:15:00,
2013-07-31 21:30:00,57.0,55.0,30.04,South,174,1.0,13.0,92,0.00,,,0.00,weatherlink.com 1.10,2013-08-01 04:30:00,
2013-07-31 21:45:00,56.9,55.0,30.04,South,174,1.0,9.0,92,0.00,,,0.00,weatherlink.com 1.10,2013-08-01 04:45:00,
2013-07-31 22:00:00,56.7,55.0,30.04,South,174,4.0,11.0,92,0.00,,,0.00,weatherlink.com 1.10,2013-08-01 05:00:00,
2013-07-31 22:15:00,56.7,55.0,30.04,South,174,1.0,11.0,93,0.00,,,0.00,weatherlink.com 1.10,2013-08-01 05:15:00,
2013-07-31 22:30:00,56.7,55.0,30.04,SW,235,4.0,14.0,93,0.00,,,0.00,weatherlink.com 1.10,2013-08-01 05:30:00,
2013-07-31 22:45:00,56.5,55.0,30.04,South,174,4.0,12.0,93,0.00,,,0.00,weatherlink.com 1.10,2013-08-01 05:45:00,
2013-07-31 23:00:00,56.3,55.0,30.04,South,174,1.0,11.0,94,0.00,,,0.00,weatherlink.com 1.10,2013-08-01 06:00:00,
2013-07-31 23:15:00,56.2,55.0,30.04,South,174,2.0,7.0,94,0.00,,,0.00,weatherlink.com 1.10,2013-08-01 06:15:00,
2013-07-31 23:30:00,56.1,55.0,30.04,South,174,2.0,11.0,95,0.00,,,0.00,weatherlink.com 1.10,2013-08-01 06:30:00,
2013-07-31 23:45:00,56.1,55.0,30.04,South,174,3.0,10.0,95,0.00,,,0.00,weatherlink.com 1.10,2013-08-01 06:45:00,